createdAt,value
2022-12-13T00:02:13.189Z,26.87
2022-12-13T00:06:14.404Z,23.87
2022-12-13T00:10:15.476Z,23.40
2022-12-13T00:14:16.569Z,22.00
2022-12-13T00:18:17.726Z,23.40
2022-12-13T00:22:18.792Z,27.00
2022-12-13T00:26:22.869Z,23.77
2022-12-13T00:30:25.073Z,25.70
2022-12-13T00:34:26.633Z,26.00
2022-12-13T00:38:27.699Z,27.43
2022-12-13T00:42:28.784Z,24.53
2022-12-13T00:46:30.832Z,24.17
2022-12-13T00:50:32.962Z,25.90
2022-12-13T00:54:34.461Z,26.43
2022-12-13T00:58:35.537Z,27.47
2022-12-13T01:02:37.003Z,24.70
2022-12-13T01:06:44.076Z,24.70
2022-12-13T01:10:46.325Z,22.37
2022-12-13T01:14:50.688Z,24.57
2022-12-13T01:18:50.364Z,23.47
2022-12-13T01:22:51.442Z,23.53
2022-12-13T01:26:53.407Z,22.37
2022-12-13T01:30:58.636Z,26.87
2022-12-13T01:34:59.768Z,25.70
2022-12-13T01:39:00.834Z,25.33
2022-12-13T01:43:01.906Z,27.50
2022-12-13T01:47:05.432Z,23.70
2022-12-13T01:51:10.006Z,25.07
2022-12-13T01:55:11.858Z,25.40
2022-12-13T01:59:15.112Z,27.03
2022-12-13T02:03:21.777Z,26.43
2022-12-13T02:07:24.746Z,25.33
2022-12-13T02:11:27.020Z,25.73
2022-12-13T02:15:32.033Z,23.10
2022-12-13T02:19:52.250Z,26.77
2022-12-13T02:24:15.607Z,23.57
2022-12-13T02:28:33.043Z,26.30
2022-12-13T02:32:40.942Z,24.13
2022-12-13T02:36:58.190Z,24.77
2022-12-13T02:41:15.425Z,24.13
2022-12-13T02:45:21.268Z,25.03
2022-12-13T02:49:24.802Z,23.30
2022-12-13T02:53:26.641Z,24.37
2022-12-13T02:57:36.264Z,24.30
2022-12-13T03:01:50.492Z,27.23
2022-12-13T03:06:25.708Z,22.87
2022-12-13T03:10:35.527Z,21.67
2022-12-13T03:14:40.581Z,21.10
2022-12-13T03:18:43.433Z,20.27
2022-12-13T03:22:44.715Z,20.67
2022-12-13T03:26:47.678Z,22.10
2022-12-13T03:30:48.869Z,19.20
2022-12-13T03:35:00.490Z,21.00
2022-12-13T03:38:54.631Z,22.30
2022-12-13T03:42:55.800Z,23.23
2022-12-13T03:47:00.656Z,20.43
2022-12-13T03:51:03.131Z,20.43
2022-12-13T03:55:04.508Z,23.17
2022-12-13T03:59:05.557Z,21.43
2022-12-13T04:03:06.664Z,21.83
2022-12-13T04:07:22.378Z,19.57
2022-12-13T04:11:29.140Z,21.00
2022-12-13T04:15:31.009Z,19.93
2022-12-13T04:19:32.065Z,21.47
2022-12-13T04:23:33.145Z,21.80
2022-12-13T04:27:34.203Z,19.60
2022-12-13T04:31:35.281Z,20.00
2022-12-13T04:35:36.467Z,18.97
2022-12-13T04:39:37.524Z,18.67
2022-12-13T04:43:38.714Z,19.80
2022-12-13T04:47:39.866Z,17.93
2022-12-13T04:51:42.834Z,18.40
2022-12-13T04:55:45.790Z,19.73
2022-12-13T04:59:46.881Z,20.67
2022-12-13T05:03:48.063Z,19.70
2022-12-13T05:07:49.305Z,18.80
2022-12-13T05:11:50.432Z,19.40
2022-12-13T05:15:58.324Z,20.63
2022-12-13T05:19:59.521Z,19.83
2022-12-13T05:24:02.704Z,22.47
2022-12-13T05:28:27.204Z,22.63
2022-12-13T05:32:07.859Z,20.70
2022-12-13T05:36:09.335Z,22.57
2022-12-13T05:40:10.769Z,25.83
2022-12-13T05:44:12.829Z,25.30
2022-12-13T05:48:13.937Z,21.70
2022-12-13T05:52:18.290Z,20.60
2022-12-13T05:56:22.437Z,24.43
2022-12-13T06:00:30.246Z,24.97
2022-12-13T06:04:25.729Z,21.93
2022-12-13T06:08:26.935Z,24.90
2022-12-13T06:12:31.870Z,23.33
2022-12-13T06:16:31.106Z,20.33
2022-12-13T06:20:32.273Z,19.97
2022-12-13T06:24:33.446Z,20.60
2022-12-13T06:28:35.013Z,21.40
2022-12-13T06:32:39.953Z,23.37
2022-12-13T06:36:39.036Z,22.13
2022-12-13T06:40:40.116Z,20.03
2022-12-13T06:44:41.505Z,21.90
2022-12-13T06:48:42.882Z,21.67
2022-12-13T06:52:46.454Z,21.73
2022-12-13T06:56:47.538Z,24.53
2022-12-13T07:00:49.537Z,26.50
2022-12-13T07:04:50.779Z,33.97
2022-12-13T07:08:55.255Z,25.03
2022-12-13T07:12:56.364Z,24.30
2022-12-13T07:17:03.407Z,23.53
2022-12-13T07:21:07.650Z,23.20
2022-12-13T07:25:27.471Z,23.03
2022-12-13T07:29:11.941Z,23.27
2022-12-13T07:33:13.298Z,21.60
2022-12-13T07:37:29.292Z,21.53
2022-12-13T07:41:23.210Z,21.67
2022-12-13T07:45:23.258Z,22.00
2022-12-13T07:49:24.440Z,22.07
2022-12-13T07:53:26.102Z,23.17
2022-12-13T07:57:27.666Z,22.33
2022-12-13T08:01:33.277Z,23.67
2022-12-13T08:05:38.153Z,21.00
2022-12-13T08:09:39.862Z,23.80
2022-12-13T08:13:41.211Z,20.27
2022-12-13T08:17:42.773Z,21.43
2022-12-13T08:22:01.978Z,23.70
2022-12-13T08:25:52.123Z,23.87
2022-12-13T08:29:53.295Z,21.83
2022-12-13T08:33:54.405Z,21.33
2022-12-13T08:37:56.063Z,22.40
2022-12-13T08:41:59.887Z,24.23
2022-12-13T08:46:07.268Z,22.70
2022-12-13T08:50:15.588Z,21.33
2022-12-13T08:54:31.106Z,23.07
2022-12-13T08:58:20.356Z,23.43
2022-12-13T09:02:26.879Z,25.37
2022-12-13T09:06:42.547Z,21.27
2022-12-13T09:10:49.179Z,21.83
2022-12-13T09:15:04.670Z,20.60
2022-12-13T09:19:25.150Z,20.80
2022-12-13T09:23:36.995Z,20.97
2022-12-13T09:27:39.597Z,19.70
2022-12-13T09:31:51.113Z,20.73
2022-12-13T09:35:57.363Z,21.17
2022-12-13T09:40:16.427Z,19.57
2022-12-13T09:44:07.711Z,19.17
2022-12-13T09:48:14.879Z,19.60
2022-12-13T09:52:21.624Z,17.43
2022-12-13T09:56:27.876Z,26.27
2022-12-13T10:00:33.342Z,18.33
2022-12-13T10:04:35.149Z,18.73
2022-12-13T10:08:42.256Z,19.53
2022-12-13T10:12:48.417Z,18.73
2022-12-13T10:16:54.479Z,22.63
2022-12-13T10:20:58.553Z,20.70
2022-12-13T10:25:05.864Z,18.37
2022-12-13T10:29:07.958Z,17.87
2022-12-13T10:33:19.182Z,19.13
2022-12-13T10:37:33.880Z,19.67
2022-12-13T10:41:40.740Z,21.10
2022-12-13T10:45:44.813Z,19.77
2022-12-13T10:49:59.348Z,18.40
2022-12-13T10:54:00.138Z,18.90
2022-12-13T10:58:11.878Z,17.83
2022-12-13T11:02:40.540Z,17.67
2022-12-13T11:06:52.533Z,18.63
2022-12-13T11:11:05.721Z,18.17
2022-12-13T11:15:19.283Z,19.07
2022-12-13T11:19:52.771Z,17.77
2022-12-13T11:24:01.547Z,21.50
2022-12-13T11:28:27.220Z,19.70
2022-12-13T11:32:48.392Z,19.40
2022-12-13T11:37:02.929Z,18.40
2022-12-13T11:41:32.587Z,20.90
2022-12-13T11:45:34.587Z,17.33
2022-12-13T11:49:54.814Z,19.70
2022-12-13T11:54:24.061Z,19.43
2022-12-13T11:59:05.881Z,20.07
2022-12-13T12:03:03.452Z,19.10
2022-12-13T12:07:31.895Z,16.10
2022-12-13T12:11:47.810Z,18.63
2022-12-13T12:15:59.222Z,17.77
2022-12-13T12:20:05.860Z,17.20
2022-12-13T12:24:20.765Z,17.00
2022-12-13T12:28:44.817Z,18.60
2022-12-13T12:32:58.663Z,18.53
2022-12-13T12:37:40.416Z,18.13
2022-12-13T12:42:26.104Z,20.10
2022-12-13T12:47:08.529Z,17.47
2022-12-13T12:51:02.677Z,16.57
2022-12-13T12:55:45.081Z,18.97
2022-12-13T13:00:01.663Z,17.80
2022-12-13T13:04:08.597Z,20.80
2022-12-13T13:08:41.086Z,19.80
2022-12-13T13:17:34.926Z,18.77
2022-12-13T13:22:02.022Z,16.93
2022-12-13T13:26:27.063Z,18.27
2022-12-13T13:30:26.392Z,17.70
2022-12-13T13:34:32.512Z,19.37
2022-12-13T13:38:54.752Z,17.67
2022-12-13T13:43:12.470Z,19.33
2022-12-13T13:47:24.826Z,19.30
2022-12-13T13:51:41.436Z,19.37
2022-12-13T13:56:01.657Z,19.10
2022-12-13T14:00:12.201Z,17.57
2022-12-13T14:04:55.053Z,19.60
2022-12-13T14:09:30.911Z,19.10
2022-12-13T14:13:45.036Z,18.30
2022-12-13T14:17:57.875Z,19.60
2022-12-13T14:22:31.151Z,22.00
2022-12-13T14:26:55.975Z,21.90
2022-12-13T14:30:57.988Z,24.37
2022-12-13T14:35:24.681Z,26.60
2022-12-13T14:39:25.261Z,25.23
2022-12-13T14:43:31.404Z,23.07
2022-12-13T14:47:42.956Z,22.67
2022-12-13T14:51:47.682Z,22.83
2022-12-13T14:56:27.440Z,24.43
2022-12-13T15:00:23.488Z,24.90
2022-12-13T15:04:32.974Z,24.07
2022-12-13T15:08:37.167Z,30.20
2022-12-13T15:12:44.118Z,35.97
2022-12-13T15:16:50.970Z,32.97
2022-12-13T15:20:54.254Z,29.43
2022-12-13T15:24:57.635Z,29.17
2022-12-13T15:29:09.957Z,26.50
2022-12-13T15:33:30.455Z,20.67
2022-12-13T15:37:32.310Z,21.33
2022-12-13T15:41:36.737Z,20.20
2022-12-13T15:45:38.248Z,17.77
2022-12-13T15:49:51.946Z,17.90
2022-12-13T15:54:12.395Z,17.63
2022-12-13T15:58:25.986Z,17.70
2022-12-13T16:02:29.469Z,18.17
2022-12-13T16:06:32.769Z,18.60
2022-12-13T16:10:34.727Z,22.25
2022-12-13T16:14:40.238Z,18.23
2022-12-13T16:18:46.506Z,24.80
2022-12-13T16:22:48.047Z,25.20
2022-12-13T16:26:51.612Z,21.80
2022-12-13T16:31:02.456Z,23.00
2022-12-13T16:35:04.011Z,20.33
2022-12-13T16:39:07.120Z,22.83
2022-12-13T16:43:14.743Z,20.10
2022-12-13T16:47:27.010Z,18.60
2022-12-13T16:51:25.821Z,17.33
2022-12-13T16:55:27.051Z,16.30
2022-12-13T16:59:28.297Z,17.93
2022-12-13T17:03:29.617Z,15.20
2022-12-13T17:07:30.921Z,15.30
2022-12-13T17:11:32.863Z,15.80
2022-12-13T17:15:34.131Z,14.03
2022-12-13T17:19:35.379Z,14.40
2022-12-13T17:23:37.044Z,12.57
2022-12-13T17:27:38.791Z,14.17
2022-12-13T17:31:39.984Z,14.03
2022-12-13T17:35:41.294Z,17.23
2022-12-13T17:39:48.611Z,10.37
2022-12-13T17:43:49.887Z,12.80
2022-12-13T17:47:51.934Z,12.57
2022-12-13T17:51:54.215Z,14.13
2022-12-13T17:56:01.781Z,12.00
2022-12-13T18:00:04.495Z,12.83
2022-12-13T18:04:05.804Z,13.20
2022-12-13T18:08:07.600Z,14.23
2022-12-13T18:12:08.956Z,14.00
2022-12-13T18:16:14.446Z,13.70
2022-12-13T18:20:15.654Z,12.30
2022-12-13T18:24:16.909Z,12.73
2022-12-13T18:28:18.129Z,12.57
2022-12-13T18:32:19.328Z,12.60
2022-12-13T18:36:23.551Z,14.30
2022-12-13T18:40:25.068Z,12.40
2022-12-13T18:44:26.518Z,12.67
2022-12-13T18:48:28.562Z,14.70
2022-12-13T18:52:30.225Z,13.07
2022-12-13T18:56:31.692Z,13.47
2022-12-13T19:00:33.068Z,12.67
2022-12-13T19:04:35.258Z,11.53
2022-12-13T19:08:36.898Z,12.50
2022-12-13T19:12:38.241Z,11.43
2022-12-13T19:16:40.362Z,12.27
2022-12-13T19:20:50.108Z,11.67
2022-12-13T19:24:52.211Z,12.00
2022-12-13T19:28:56.341Z,14.10
2022-12-13T19:32:57.843Z,12.70
2022-12-13T19:37:03.048Z,12.63
2022-12-13T19:41:10.557Z,12.50
2022-12-13T19:45:11.883Z,11.93
2022-12-13T19:49:13.334Z,13.63
2022-12-13T19:53:14.598Z,12.60
2022-12-13T19:57:16.084Z,13.70
2022-12-13T20:01:18.569Z,12.47
2022-12-13T20:05:20.007Z,12.93
2022-12-13T20:09:21.372Z,13.60
2022-12-13T20:13:22.578Z,13.73
2022-12-13T20:17:23.829Z,14.47
2022-12-13T20:21:27.557Z,13.90
2022-12-13T20:25:28.923Z,13.93
2022-12-13T20:29:30.215Z,15.00
2022-12-13T20:33:32.071Z,13.60
2022-12-13T20:37:34.409Z,14.67
2022-12-13T20:41:36.539Z,12.87
2022-12-13T20:45:37.872Z,12.37
2022-12-13T20:49:39.525Z,12.30
2022-12-13T20:53:43.203Z,15.13
2022-12-13T20:57:44.475Z,14.30
2022-12-13T21:01:48.863Z,14.47
2022-12-13T21:05:49.358Z,14.40
2022-12-13T21:09:50.695Z,13.00
2022-12-13T21:14:21.977Z,13.40
2022-12-13T21:18:21.008Z,12.93
2022-12-13T21:22:22.250Z,14.30
2022-12-13T21:26:27.604Z,16.17
2022-12-13T21:30:27.964Z,14.70
2022-12-13T21:34:29.567Z,14.33
2022-12-13T21:38:30.886Z,15.00
2022-12-13T21:42:32.094Z,15.37
2022-12-13T21:47:10.112Z,16.43
2022-12-13T21:50:36.624Z,14.57
2022-12-13T21:54:37.822Z,12.70
2022-12-13T21:58:59.958Z,14.80
2022-12-13T22:03:05.322Z,14.17
2022-12-13T22:07:08.230Z,14.80
2022-12-13T22:11:21.052Z,15.60
2022-12-13T22:15:19.201Z,13.73
2022-12-13T22:19:21.165Z,12.23
2022-12-13T22:23:22.525Z,12.43
2022-12-13T22:27:24.671Z,11.97
2022-12-13T22:31:29.712Z,11.73
2022-12-13T22:35:28.859Z,13.40
2022-12-13T22:39:30.011Z,12.97
2022-12-13T22:43:35.431Z,13.47
2022-12-13T22:47:36.632Z,11.73
2022-12-13T22:51:38.937Z,11.63
2022-12-13T22:55:40.196Z,11.73
2022-12-13T22:59:41.517Z,11.07
2022-12-13T23:03:43.767Z,11.80
2022-12-13T23:07:48.563Z,12.63
2022-12-13T23:12:06.746Z,12.83
2022-12-13T23:16:08.273Z,9.90
2022-12-13T23:20:10.231Z,10.60
2022-12-13T23:24:13.029Z,10.40
2022-12-13T23:28:14.279Z,11.03
2022-12-13T23:32:16.029Z,11.03
2022-12-13T23:36:23.182Z,9.87
2022-12-13T23:40:24.550Z,9.80
2022-12-13T23:44:26.528Z,8.97
2022-12-13T23:48:28.597Z,9.37
2022-12-13T23:52:30.564Z,11.57
2022-12-13T23:56:33.375Z,9.33
